地図

経路データ

SID SEASON NUMBER BASIN SUBBASIN NAME ISO_TIME NATURE LAT LON WMO_WIND WMO_PRES WMO_AGENCY TRACK_TYPE DIST2LAND LANDFALL IFLAG USA_AGENCY USA_ATCF_ID USA_LAT USA_LON USA_RECORD USA_STATUS USA_WIND USA_PRES USA_SSHS USA_R34_NE USA_R34_SE USA_R34_SW USA_R34_NW USA_R50_NE USA_R50_SE USA_R50_SW USA_R50_NW USA_R64_NE USA_R64_SE USA_R64_SW USA_R64_NW USA_POCI USA_ROCI USA_RMW USA_EYE TOKYO_LAT TOKYO_LON TOKYO_GRADE TOKYO_WIND TOKYO_PRES TOKYO_R50_DIR TOKYO_R50_LONG TOKYO_R50_SHORT TOKYO_R30_DIR TOKYO_R30_LONG TOKYO_R30_SHORT TOKYO_LAND CMA_LAT CMA_LON CMA_CAT CMA_WIND CMA_PRES HKO_LAT HKO_LON HKO_CAT HKO_WIND HKO_PRES NEWDELHI_LAT NEWDELHI_LON NEWDELHI_GRADE NEWDELHI_WIND NEWDELHI_PRES NEWDELHI_CI NEWDELHI_DP NEWDELHI_POCI REUNION_LAT REUNION_LON REUNION_TYPE REUNION_WIND REUNION_PRES REUNION_TNUM REUNION_CI REUNION_RMW REUNION_R34_NE REUNION_R34_SE REUNION_R34_SW REUNION_R34_NW REUNION_R50_NE REUNION_R50_SE REUNION_R50_SW REUNION_R50_NW REUNION_R64_NE REUNION_R64_SE REUNION_R64_SW REUNION_R64_NW BOM_LAT BOM_LON BOM_TYPE BOM_WIND BOM_PRES BOM_TNUM BOM_CI BOM_RMW BOM_R34_NE BOM_R34_SE BOM_R34_SW BOM_R34_NW BOM_R50_NE BOM_R50_SE BOM_R50_SW BOM_R50_NW BOM_R64_NE BOM_R64_SE BOM_R64_SW BOM_R64_NW BOM_ROCI BOM_POCI BOM_EYE BOM_POS_METHOD BOM_PRES_METHOD NADI_LAT NADI_LON NADI_CAT NADI_WIND NADI_PRES WELLINGTON_LAT WELLINGTON_LON WELLINGTON_WIND WELLINGTON_PRES DS824_LAT DS824_LON DS824_STAGE DS824_WIND DS824_PRES TD9636_LAT TD9636_LON TD9636_STAGE TD9636_WIND TD9636_PRES TD9635_LAT TD9635_LON TD9635_WIND TD9635_PRES TD9635_ROCI NEUMANN_LAT NEUMANN_LON NEUMANN_CLASS NEUMANN_WIND NEUMANN_PRES MLC_LAT MLC_LON MLC_CLASS MLC_WIND MLC_PRES USA_GUST BOM_GUST BOM_GUST_PER REUNION_GUST REUNION_GUST_PER USA_SEAHGT USA_SEARAD_NE USA_SEARAD_SE USA_SEARAD_SW USA_SEARAD_NW STORM_SPEED STORM_DIR
1903269N23301 1903 48 NA NA NOT_NAMED 1903-09-26 06:00:00 TS 22.9000 -58.8000 40 hurdat_atl main 867 839 O_____________ hurdat_atl AL061903 22.9000 -58.8000 TS 40 0 11 293
1903269N23301 1903 48 NA NA NOT_NAMED 1903-09-26 09:00:00 TS 23.1099 -59.3497 main 839 799 P_____________ AL061903 23.1099 -59.3497 TS 40 0 12 290
1903269N23301 1903 48 NA NA NOT_NAMED 1903-09-26 12:00:00 TS 23.3000 -60.0000 40 hurdat_atl main 799 748 O_____________ hurdat_atl AL061903 23.3000 -60.0000 TS 40 0 14 285
1903269N23301 1903 48 NA NA NOT_NAMED 1903-09-26 15:00:00 TS 23.4579 -60.8001 main 757 714 P_____________ AL061903 23.4579 -60.8001 TS 40 0 15 282
1903269N23301 1903 48 NA NA NOT_NAMED 1903-09-26 18:00:00 TS 23.6000 -61.6000 40 hurdat_atl main 714 689 O_____________ hurdat_atl AL061903 23.6000 -61.6000 TS 40 0 14 282
1903269N23301 1903 48 NA NA NOT_NAMED 1903-09-26 21:00:00 TS 23.7420 -62.2453 main 689 679 P_____________ AL061903 23.7420 -62.2453 TS 42 0 11 285
1903269N23301 1903 48 NA NA NOT_NAMED 1903-09-27 00:00:00 TS 23.9000 -62.8000 45 hurdat_atl main 680 671 O_____________ hurdat_atl AL061903 23.9000 -62.8000 TS 45 0 11 289
1903269N23301 1903 48 NA NA NOT_NAMED 1903-09-27 03:00:00 TS 24.0848 -63.3301 main 680 673 P_____________ AL061903 24.0848 -63.3301 TS 47 0 10 294
1903269N23301 1903 48 NA NA NOT_NAMED 1903-09-27 06:00:00 TS 24.3000 -63.8000 50 hurdat_atl main 685 682 O_____________ hurdat_atl AL061903 24.3000 -63.8000 TS 50 0 9 296
1903269N23301 1903 48 NA NA NOT_NAMED 1903-09-27 09:00:00 TS 24.4898 -64.2231 main 697 695 P_____________ AL061903 24.4898 -64.2231 TS 52 0 9 304
1903269N23301 1903 48 NA NA NOT_NAMED 1903-09-27 12:00:00 TS 24.8000 -64.6000 55 hurdat_atl main 723 723 O_____________ hurdat_atl AL061903 24.8000 -64.6000 TS 55 0 11 321
1903269N23301 1903 48 NA NA NOT_NAMED 1903-09-27 15:00:00 TS 25.3400 -64.9797 main 773 773 P_____________ AL061903 25.3400 -64.9797 TS 57 0 14 332
1903269N23301 1903 48 NA NA NOT_NAMED 1903-09-27 18:00:00 TS 26.0000 -65.3000 60 hurdat_atl main 850 850 O_____________ hurdat_atl AL061903 26.0000 -65.3000 TS 60 0 14 338
1903269N23301 1903 48 NA NA NOT_NAMED 1903-09-27 21:00:00 TS 26.6349 -65.5525 main 899 899 P_____________ AL061903 26.6349 -65.5525 TS 65 1 14 345
1903269N23301 1903 48 NA NA NOT_NAMED 1903-09-28 00:00:00 TS 27.3000 -65.7000 70 hurdat_atl main 965 965 O_____________ hurdat_atl AL061903 27.3000 -65.7000 HU 70 1 14 353
1903269N23301 1903 48 NA NA NOT_NAMED 1903-09-28 03:00:00 TS 27.9999 -65.7452 main 1035 1035 P_____________ AL061903 27.9999 -65.7452 HU 75 1 14 0
1903269N23301 1903 48 NA NA NOT_NAMED 1903-09-28 06:00:00 TS 28.7000 -65.7000 80 hurdat_atl main 1106 1106 O_____________ hurdat_atl AL061903 28.7000 -65.7000 HU 80 1 13 2
1903269N23301 1903 48 NA NA NOT_NAMED 1903-09-28 09:00:00 TS 29.2970 -65.6951 main 1164 1132 P_____________ AL061903 29.2970 -65.6951 HU 85 2 13 8
1903269N23301 1903 48 NA NA NOT_NAMED 1903-09-28 12:00:00 TS 30.0000 -65.5000 90 hurdat_atl main 1133 1107 O_____________ hurdat_atl AL061903 30.0000 -65.5000 HU 90 2 18 20
1903269N23301 1903 48 NA NA NOT_NAMED 1903-09-28 15:00:00 TS 30.9973 -64.9777 main 1109 1105 P_____________ AL061903 30.9973 -64.9777 HU 92 2 24 28
1903269N23301 1903 48 NA NA NOT_NAMED 1903-09-28 18:00:00 TS 32.1000 -64.2000 95 hurdat_atl main 1118 1113 O_____________ hurdat_atl AL061903 32.1000 -64.2000 HU 95 2 25 32
1903269N23301 1903 48 NA NA NOT_NAMED 1903-09-28 21:00:00 TS 33.1125 -63.3884 main 1119 1083 P_____________ AL061903 33.1125 -63.3884 HU 95 2 26 39
1903269N23301 1903 48 NA NA NOT_NAMED 1903-09-29 00:00:00 TS 34.1000 -62.3000 95 hurdat_atl main 1077 1015 O_____________ hurdat_atl AL061903 34.1000 -62.3000 HU 95 2 29 48
1903269N23301 1903 48 NA NA NOT_NAMED 1903-09-29 03:00:00 TS 35.0898 -60.7695 main 1011 982 P_____________ AL061903 35.0898 -60.7695 HU 95 2 32 54
1903269N23301 1903 48 NA NA NOT_NAMED 1903-09-29 06:00:00 TS 36.0000 -59.1000 95 hurdat_atl main 987 980 O_____________ hurdat_atl AL061903 36.0000 -59.1000 HU 95 2 30 56
1903269N23301 1903 48 NA NA NOT_NAMED 1903-09-29 09:00:00 TS 36.7453 -57.7136 main 986 941 P_____________ AL061903 36.7453 -57.7136 HU 92 2 27 56
1903269N23301 1903 48 NA NA NOT_NAMED 1903-09-29 12:00:00 TS 37.5000 -56.3000 90 hurdat_atl main 944 917 O_____________ hurdat_atl AL061903 37.5000 -56.3000 HU 90 2 29 55
1903269N23301 1903 48 NA NA NOT_NAMED 1903-09-29 15:00:00 TS 38.4248 -54.6523 main 916 811 P_____________ AL061903 38.4248 -54.6523 HU 87 2 33 55
1903269N23301 1903 48 NA NA NOT_NAMED 1903-09-29 18:00:00 TS 39.4000 -52.8000 85 hurdat_atl main 801 726 O_____________ hurdat_atl AL061903 39.4000 -52.8000 HU 85 2 36 58
1903269N23301 1903 48 NA NA NOT_NAMED 1903-09-29 21:00:00 TS 40.3304 -50.7216 main 728 699 P_____________ AL061903 40.3304 -50.7216 HU 82 1 37 61
1903269N23301 1903 48 NA NA NOT_NAMED 1903-09-30 00:00:00 TS 41.2000 -48.6000 80 hurdat_atl main 703 701 O_____________ hurdat_atl AL061903 41.2000 -48.6000 HU 80 1 34 62
1903269N23301 1903 48 NA NA NOT_NAMED 1903-09-30 03:00:00 TS 41.9434 -46.6964 main 733 731 P_____________ AL061903 41.9434 -46.6964 HU 77 1 32 62
1903269N23301 1903 48 NA NA NOT_NAMED 1903-09-30 06:00:00 ET 42.7000 -44.8000 75 hurdat_atl main 789 789 O_____________ hurdat_atl AL061903 42.7000 -44.8000 EX 75 -4 33 61
1903269N23301 1903 48 NA NA NOT_NAMED 1903-09-30 09:00:00 ET 43.5578 -42.7325 main 878 878 P_____________ AL061903 43.5578 -42.7325 EX 72 -4 36 60
1903269N23301 1903 48 NA NA NOT_NAMED 1903-09-30 12:00:00 ET 44.5000 -40.5000 70 hurdat_atl main 987 987 O_____________ hurdat_atl AL061903 44.5000 -40.5000 EX 70 -4 38 60
1903269N23301 1903 48 NA NA NOT_NAMED 1903-09-30 15:00:00 ET 45.4997 -38.0779 main 1125 1125 P_____________ AL061903 45.4997 -38.0779 EX 65 -4 40 60
1903269N23301 1903 48 NA NA NOT_NAMED 1903-09-30 18:00:00 ET 46.5000 -35.5000 60 hurdat_atl main 1293 O_____________ hurdat_atl AL061903 46.5000 -35.5000 EX 60 -4 41 61

IBTrACS Databaseについて

本データベースは、米国NOAAが公開する1842年以降の世界の熱帯低気圧のベストトラックデータアーカイブInternational Best Track Archive for Climate Stewardship (IBTrACS)を、ウェブで閲覧しやすい形式に変換したものです。

最終更新日:2021-11-26